sensor_id;sensor_type;location;lat;lon;timestamp;temperature;humidity
42031;DHT22;27709;52.036;5.906;2023-08-06T00:00:08;17.10;99.90
42031;DHT22;27709;52.036;5.906;2023-08-06T00:02:34;17.00;99.90
42031;DHT22;27709;52.036;5.906;2023-08-06T00:05:00;17.00;99.90
42031;DHT22;27709;52.036;5.906;2023-08-06T00:07:26;17.00;99.90
42031;DHT22;27709;52.036;5.906;2023-08-06T00:09:51;17.00;99.90
42031;DHT22;27709;52.036;5.906;2023-08-06T00:12:17;16.90;99.90
42031;DHT22;27709;52.036;5.906;2023-08-06T00:14:42;17.00;99.90
42031;DHT22;27709;52.036;5.906;2023-08-06T00:17:09;17.00;99.90
42031;DHT22;27709;52.036;5.906;2023-08-06T00:19:34;17.00;99.90
42031;DHT22;27709;52.036;5.906;2023-08-06T00:22:00;17.00;99.90
42031;DHT22;27709;52.036;5.906;2023-08-06T00:24:27;17.00;99.90
42031;DHT22;27709;52.036;5.906;2023-08-06T00:26:52;17.00;99.90
42031;DHT22;27709;52.036;5.906;2023-08-06T00:29:18;17.00;99.90
42031;DHT22;27709;52.036;5.906;2023-08-06T00:31:45;17.00;99.90
42031;DHT22;27709;52.036;5.906;2023-08-06T00:34:10;17.00;99.90
42031;DHT22;27709;52.036;5.906;2023-08-06T00:36:36;17.00;99.90
42031;DHT22;27709;52.036;5.906;2023-08-06T00:39:02;17.10;99.90
42031;DHT22;27709;52.036;5.906;2023-08-06T00:41:28;17.10;99.90
42031;DHT22;27709;52.036;5.906;2023-08-06T00:43:56;17.10;99.90
42031;DHT22;27709;52.036;5.906;2023-08-06T00:46:21;17.10;99.90
42031;DHT22;27709;52.036;5.906;2023-08-06T00:48:47;17.10;99.90
42031;DHT22;27709;52.036;5.906;2023-08-06T00:51:13;17.10;99.90
42031;DHT22;27709;52.036;5.906;2023-08-06T00:53:39;17.10;99.90
42031;DHT22;27709;52.036;5.906;2023-08-06T00:56:06;17.10;99.90
42031;DHT22;27709;52.036;5.906;2023-08-06T00:58:32;17.10;99.90
42031;DHT22;27709;52.036;5.906;2023-08-06T01:00:58;17.20;99.90
42031;DHT22;27709;52.036;5.906;2023-08-06T01:03:27;17.20;99.90
42031;DHT22;27709;52.036;5.906;2023-08-06T01:05:53;17.20;99.90
42031;DHT22;27709;52.036;5.906;2023-08-06T01:08:31;17.10;99.90
42031;DHT22;27709;52.036;5.906;2023-08-06T01:13:47;17.20;99.90
42031;DHT22;27709;52.036;5.906;2023-08-06T01:16:34;17.20;99.90
42031;DHT22;27709;52.036;5.906;2023-08-06T01:19:02;17.20;99.90
42031;DHT22;27709;52.036;5.906;2023-08-06T01:21:27;17.10;99.90
42031;DHT22;27709;52.036;5.906;2023-08-06T01:23:53;17.20;99.90
42031;DHT22;27709;52.036;5.906;2023-08-06T01:26:36;17.20;99.90
42031;DHT22;27709;52.036;5.906;2023-08-06T01:29:23;17.10;99.90
42031;DHT22;27709;52.036;5.906;2023-08-06T01:31:52;17.10;99.90
42031;DHT22;27709;52.036;5.906;2023-08-06T01:34:21;17.10;99.90
42031;DHT22;27709;52.036;5.906;2023-08-06T01:36:47;17.10;99.90
42031;DHT22;27709;52.036;5.906;2023-08-06T01:39:13;17.20;99.90
42031;DHT22;27709;52.036;5.906;2023-08-06T01:41:39;17.20;99.90
42031;DHT22;27709;52.036;5.906;2023-08-06T01:44:04;17.20;99.90
42031;DHT22;27709;52.036;5.906;2023-08-06T01:46:30;17.20;99.90
42031;DHT22;27709;52.036;5.906;2023-08-06T01:48:56;17.20;99.90
42031;DHT22;27709;52.036;5.906;2023-08-06T01:51:21;17.20;99.90
42031;DHT22;27709;52.036;5.906;2023-08-06T01:53:47;17.20;99.90
42031;DHT22;27709;52.036;5.906;2023-08-06T01:56:12;17.20;99.90
42031;DHT22;27709;52.036;5.906;2023-08-06T01:58:38;17.20;99.90
42031;DHT22;27709;52.036;5.906;2023-08-06T02:01:03;17.20;99.90
42031;DHT22;27709;52.036;5.906;2023-08-06T02:03:29;17.20;99.90
42031;DHT22;27709;52.036;5.906;2023-08-06T02:05:55;17.20;99.90
42031;DHT22;27709;52.036;5.906;2023-08-06T02:08:20;17.20;99.90
42031;DHT22;27709;52.036;5.906;2023-08-06T02:10:46;17.30;99.90
42031;DHT22;27709;52.036;5.906;2023-08-06T02:13:11;17.20;99.90
42031;DHT22;27709;52.036;5.906;2023-08-06T02:15:44;17.20;99.90
42031;DHT22;27709;52.036;5.906;2023-08-06T02:18:09;17.20;99.90
42031;DHT22;27709;52.036;5.906;2023-08-06T02:20:35;17.20;99.90
42031;DHT22;27709;52.036;5.906;2023-08-06T02:23:00;17.20;99.90
42031;DHT22;27709;52.036;5.906;2023-08-06T02:25:27;17.30;99.90
42031;DHT22;27709;52.036;5.906;2023-08-06T02:27:53;17.30;99.90
42031;DHT22;27709;52.036;5.906;2023-08-06T02:30:18;17.30;99.90
42031;DHT22;27709;52.036;5.906;2023-08-06T02:32:44;17.30;99.90
42031;DHT22;27709;52.036;5.906;2023-08-06T02:35:09;17.30;99.90
42031;DHT22;27709;52.036;5.906;2023-08-06T02:37:35;17.30;99.90
42031;DHT22;27709;52.036;5.906;2023-08-06T02:40:01;17.30;99.90
42031;DHT22;27709;52.036;5.906;2023-08-06T02:42:26;17.30;99.90
42031;DHT22;27709;52.036;5.906;2023-08-06T02:44:52;17.20;99.90
42031;DHT22;27709;52.036;5.906;2023-08-06T02:47:20;17.20;99.90
42031;DHT22;27709;52.036;5.906;2023-08-06T02:49:46;17.20;99.90
42031;DHT22;27709;52.036;5.906;2023-08-06T02:52:11;17.20;99.90
42031;DHT22;27709;52.036;5.906;2023-08-06T02:54:37;17.20;99.90
42031;DHT22;27709;52.036;5.906;2023-08-06T02:57:02;17.30;99.90
42031;DHT22;27709;52.036;5.906;2023-08-06T02:59:28;17.20;99.90
42031;DHT22;27709;52.036;5.906;2023-08-06T03:01:54;17.20;99.90
42031;DHT22;27709;52.036;5.906;2023-08-06T03:04:19;17.20;99.90
42031;DHT22;27709;52.036;5.906;2023-08-06T03:06:45;17.30;99.90
42031;DHT22;27709;52.036;5.906;2023-08-06T03:09:12;17.30;99.90
42031;DHT22;27709;52.036;5.906;2023-08-06T03:11:38;17.30;99.90
42031;DHT22;27709;52.036;5.906;2023-08-06T03:14:08;17.30;99.90
42031;DHT22;27709;52.036;5.906;2023-08-06T03:16:34;17.30;99.90
42031;DHT22;27709;52.036;5.906;2023-08-06T03:18:59;17.30;99.90
42031;DHT22;27709;52.036;5.906;2023-08-06T03:21:28;17.30;99.90
42031;DHT22;27709;52.036;5.906;2023-08-06T03:23:54;17.30;99.90
42031;DHT22;27709;52.036;5.906;2023-08-06T03:26:19;17.20;99.90
42031;DHT22;27709;52.036;5.906;2023-08-06T03:28:45;17.20;99.90
42031;DHT22;27709;52.036;5.906;2023-08-06T03:31:10;17.20;99.90
42031;DHT22;27709;52.036;5.906;2023-08-06T03:33:36;17.20;99.90
42031;DHT22;27709;52.036;5.906;2023-08-06T03:36:02;17.20;99.90
42031;DHT22;27709;52.036;5.906;2023-08-06T03:38:27;17.20;99.90
42031;DHT22;27709;52.036;5.906;2023-08-06T03:40:53;17.20;99.90
42031;DHT22;27709;52.036;5.906;2023-08-06T03:43:20;17.20;99.90
42031;DHT22;27709;52.036;5.906;2023-08-06T03:45:46;17.20;99.90
42031;DHT22;27709;52.036;5.906;2023-08-06T03:48:11;17.20;99.90
42031;DHT22;27709;52.036;5.906;2023-08-06T03:50:37;17.20;99.90
42031;DHT22;27709;52.036;5.906;2023-08-06T03:53:03;17.20;99.90
42031;DHT22;27709;52.036;5.906;2023-08-06T03:55:28;17.20;99.90
42031;DHT22;27709;52.036;5.906;2023-08-06T03:57:54;17.20;99.90
42031;DHT22;27709;52.036;5.906;2023-08-06T04:00:20;17.20;99.90
42031;DHT22;27709;52.036;5.906;2023-08-06T04:02:45;17.20;99.90
42031;DHT22;27709;52.036;5.906;2023-08-06T04:05:11;17.20;99.90
42031;DHT22;27709;52.036;5.906;2023-08-06T04:07:37;17.20;99.90
42031;DHT22;27709;52.036;5.906;2023-08-06T04:10:04;17.20;99.90
42031;DHT22;27709;52.036;5.906;2023-08-06T04:12:30;17.20;99.90
42031;DHT22;27709;52.036;5.906;2023-08-06T04:14:57;17.20;99.90
42031;DHT22;27709;52.036;5.906;2023-08-06T04:17:23;17.20;99.90
42031;DHT22;27709;52.036;5.906;2023-08-06T04:19:50;17.20;99.90
42031;DHT22;27709;52.036;5.906;2023-08-06T04:22:16;17.20;99.90
42031;DHT22;27709;52.036;5.906;2023-08-06T04:24:42;17.30;99.90
42031;DHT22;27709;52.036;5.906;2023-08-06T04:27:09;17.30;99.90
42031;DHT22;27709;52.036;5.906;2023-08-06T04:29:35;17.20;99.90
42031;DHT22;27709;52.036;5.906;2023-08-06T04:32:01;17.20;99.90
42031;DHT22;27709;52.036;5.906;2023-08-06T04:34:26;17.30;99.90
42031;DHT22;27709;52.036;5.906;2023-08-06T04:36:52;17.30;99.90
42031;DHT22;27709;52.036;5.906;2023-08-06T04:39:17;17.30;99.90
42031;DHT22;27709;52.036;5.906;2023-08-06T04:41:43;17.30;99.90
42031;DHT22;27709;52.036;5.906;2023-08-06T04:44:08;17.30;99.90
42031;DHT22;27709;52.036;5.906;2023-08-06T04:46:34;17.30;99.90
42031;DHT22;27709;52.036;5.906;2023-08-06T04:49:00;17.40;99.90
42031;DHT22;27709;52.036;5.906;2023-08-06T04:51:25;17.40;99.90
42031;DHT22;27709;52.036;5.906;2023-08-06T04:53:51;17.40;99.90
42031;DHT22;27709;52.036;5.906;2023-08-06T04:56:16;17.40;99.90
42031;DHT22;27709;52.036;5.906;2023-08-06T04:58:42;17.40;99.90
42031;DHT22;27709;52.036;5.906;2023-08-06T05:01:07;17.50;99.90
42031;DHT22;27709;52.036;5.906;2023-08-06T05:03:33;17.60;99.90
42031;DHT22;27709;52.036;5.906;2023-08-06T05:05:58;17.60;99.90
42031;DHT22;27709;52.036;5.906;2023-08-06T05:08:26;17.60;99.90
42031;DHT22;27709;52.036;5.906;2023-08-06T05:10:51;17.70;99.90
42031;DHT22;27709;52.036;5.906;2023-08-06T05:13:18;17.70;99.90
42031;DHT22;27709;52.036;5.906;2023-08-06T05:15:43;17.70;99.90
42031;DHT22;27709;52.036;5.906;2023-08-06T05:18:11;17.70;99.90
42031;DHT22;27709;52.036;5.906;2023-08-06T05:20:37;17.80;99.90
42031;DHT22;27709;52.036;5.906;2023-08-06T05:23:03;17.90;99.90
42031;DHT22;27709;52.036;5.906;2023-08-06T05:25:29;17.90;99.90
42031;DHT22;27709;52.036;5.906;2023-08-06T05:27:55;18.00;99.90
42031;DHT22;27709;52.036;5.906;2023-08-06T05:30:23;18.10;99.90
42031;DHT22;27709;52.036;5.906;2023-08-06T05:32:48;18.10;99.90
42031;DHT22;27709;52.036;5.906;2023-08-06T05:35:15;18.20;99.90
42031;DHT22;27709;52.036;5.906;2023-08-06T05:37:41;18.30;99.90
42031;DHT22;27709;52.036;5.906;2023-08-06T05:40:16;18.30;99.90
42031;DHT22;27709;52.036;5.906;2023-08-06T05:43:10;18.40;99.90
42031;DHT22;27709;52.036;5.906;2023-08-06T05:46:08;18.50;99.90
42031;DHT22;27709;52.036;5.906;2023-08-06T05:48:33;18.60;99.90
42031;DHT22;27709;52.036;5.906;2023-08-06T05:51:19;18.60;99.90
42031;DHT22;27709;52.036;5.906;2023-08-06T05:53:44;18.60;99.90
42031;DHT22;27709;52.036;5.906;2023-08-06T05:56:15;18.60;99.90
42031;DHT22;27709;52.036;5.906;2023-08-06T05:58:41;18.70;99.90
42031;DHT22;27709;52.036;5.906;2023-08-06T06:01:07;18.60;99.90
42031;DHT22;27709;52.036;5.906;2023-08-06T06:03:32;18.60;99.90
42031;DHT22;27709;52.036;5.906;2023-08-06T06:06:38;18.70;99.90
42031;DHT22;27709;52.036;5.906;2023-08-06T06:09:07;18.70;99.90
42031;DHT22;27709;52.036;5.906;2023-08-06T06:11:33;18.60;99.90
42031;DHT22;27709;52.036;5.906;2023-08-06T06:13:59;18.60;99.90
42031;DHT22;27709;52.036;5.906;2023-08-06T06:16:24;18.60;99.90
42031;DHT22;27709;52.036;5.906;2023-08-06T06:19:18;18.60;99.90
42031;DHT22;27709;52.036;5.906;2023-08-06T06:21:43;18.60;99.90
42031;DHT22;27709;52.036;5.906;2023-08-06T06:24:13;18.50;99.90
42031;DHT22;27709;52.036;5.906;2023-08-06T06:26:54;18.50;99.90
42031;DHT22;27709;52.036;5.906;2023-08-06T06:29:19;18.50;99.90
42031;DHT22;27709;52.036;5.906;2023-08-06T06:31:46;18.50;99.90
42031;DHT22;27709;52.036;5.906;2023-08-06T06:34:15;18.50;99.90
42031;DHT22;27709;52.036;5.906;2023-08-06T06:36:40;18.50;99.90
42031;DHT22;27709;52.036;5.906;2023-08-06T06:39:11;18.50;99.90
42031;DHT22;27709;52.036;5.906;2023-08-06T06:41:39;18.50;99.90
42031;DHT22;27709;52.036;5.906;2023-08-06T06:44:05;18.50;99.90
42031;DHT22;27709;52.036;5.906;2023-08-06T06:46:31;18.50;99.90
42031;DHT22;27709;52.036;5.906;2023-08-06T06:48:56;18.50;99.90
42031;DHT22;27709;52.036;5.906;2023-08-06T06:51:22;18.50;99.90
42031;DHT22;27709;52.036;5.906;2023-08-06T06:53:47;18.50;99.90
42031;DHT22;27709;52.036;5.906;2023-08-06T06:56:13;18.50;99.90
42031;DHT22;27709;52.036;5.906;2023-08-06T06:58:39;18.50;99.90
42031;DHT22;27709;52.036;5.906;2023-08-06T07:01:06;18.50;99.90
42031;DHT22;27709;52.036;5.906;2023-08-06T07:03:32;18.50;99.90
42031;DHT22;27709;52.036;5.906;2023-08-06T07:05:58;18.60;99.90
42031;DHT22;27709;52.036;5.906;2023-08-06T07:08:26;18.60;99.90
42031;DHT22;27709;52.036;5.906;2023-08-06T07:11:03;18.60;99.90
42031;DHT22;27709;52.036;5.906;2023-08-06T07:13:29;18.60;99.90
42031;DHT22;27709;52.036;5.906;2023-08-06T07:15:55;18.70;99.90
42031;DHT22;27709;52.036;5.906;2023-08-06T07:18:21;18.70;99.90
42031;DHT22;27709;52.036;5.906;2023-08-06T07:20:53;18.70;99.90
42031;DHT22;27709;52.036;5.906;2023-08-06T07:23:25;18.80;99.90
42031;DHT22;27709;52.036;5.906;2023-08-06T07:25:51;18.80;99.90
42031;DHT22;27709;52.036;5.906;2023-08-06T07:28:17;18.70;99.90
42031;DHT22;27709;52.036;5.906;2023-08-06T07:30:43;18.70;99.90
42031;DHT22;27709;52.036;5.906;2023-08-06T07:33:09;18.80;99.90
42031;DHT22;27709;52.036;5.906;2023-08-06T07:35:35;18.80;99.90
42031;DHT22;27709;52.036;5.906;2023-08-06T07:38:01;18.80;99.90
42031;DHT22;27709;52.036;5.906;2023-08-06T07:40:26;18.90;99.90
42031;DHT22;27709;52.036;5.906;2023-08-06T07:42:52;18.90;99.90
42031;DHT22;27709;52.036;5.906;2023-08-06T07:45:19;18.90;99.90
42031;DHT22;27709;52.036;5.906;2023-08-06T07:47:44;18.90;99.90
42031;DHT22;27709;52.036;5.906;2023-08-06T07:50:10;18.80;99.90
42031;DHT22;27709;52.036;5.906;2023-08-06T07:52:35;18.80;99.90
42031;DHT22;27709;52.036;5.906;2023-08-06T07:55:01;18.90;99.90
42031;DHT22;27709;52.036;5.906;2023-08-06T07:57:33;19.00;99.90
42031;DHT22;27709;52.036;5.906;2023-08-06T07:59:59;19.10;99.90
42031;DHT22;27709;52.036;5.906;2023-08-06T08:02:25;19.10;99.90
42031;DHT22;27709;52.036;5.906;2023-08-06T08:04:51;19.20;99.90
42031;DHT22;27709;52.036;5.906;2023-08-06T08:07:16;19.20;99.90
42031;DHT22;27709;52.036;5.906;2023-08-06T08:09:42;19.30;99.90
42031;DHT22;27709;52.036;5.906;2023-08-06T08:12:07;19.40;99.90
42031;DHT22;27709;52.036;5.906;2023-08-06T08:14:33;19.50;99.90
42031;DHT22;27709;52.036;5.906;2023-08-06T08:17:02;19.60;99.90
42031;DHT22;27709;52.036;5.906;2023-08-06T08:19:28;19.70;99.90
42031;DHT22;27709;52.036;5.906;2023-08-06T08:21:54;19.70;99.90
42031;DHT22;27709;52.036;5.906;2023-08-06T08:24:20;19.80;99.90
42031;DHT22;27709;52.036;5.906;2023-08-06T08:26:46;19.80;99.90
42031;DHT22;27709;52.036;5.906;2023-08-06T08:29:20;19.90;99.90
42031;DHT22;27709;52.036;5.906;2023-08-06T08:31:46;20.00;99.90
42031;DHT22;27709;52.036;5.906;2023-08-06T08:34:17;20.10;99.90
42031;DHT22;27709;52.036;5.906;2023-08-06T08:36:43;20.20;99.90
42031;DHT22;27709;52.036;5.906;2023-08-06T08:39:09;20.30;99.90
42031;DHT22;27709;52.036;5.906;2023-08-06T08:41:37;20.40;99.90
42031;DHT22;27709;52.036;5.906;2023-08-06T08:44:08;20.40;99.90
42031;DHT22;27709;52.036;5.906;2023-08-06T08:46:40;20.40;99.90
42031;DHT22;27709;52.036;5.906;2023-08-06T08:49:07;20.40;99.90
42031;DHT22;27709;52.036;5.906;2023-08-06T08:51:35;20.30;99.90
42031;DHT22;27709;52.036;5.906;2023-08-06T08:54:03;20.40;99.90
42031;DHT22;27709;52.036;5.906;2023-08-06T08:56:29;20.50;99.90
42031;DHT22;27709;52.036;5.906;2023-08-06T08:58:55;20.70;99.90
42031;DHT22;27709;52.036;5.906;2023-08-06T09:01:22;20.80;99.90
42031;DHT22;27709;52.036;5.906;2023-08-06T09:03:48;20.90;99.90
42031;DHT22;27709;52.036;5.906;2023-08-06T09:06:14;21.00;99.90
42031;DHT22;27709;52.036;5.906;2023-08-06T09:08:54;21.10;99.90
42031;DHT22;27709;52.036;5.906;2023-08-06T09:11:22;21.00;99.90
42031;DHT22;27709;52.036;5.906;2023-08-06T09:13:47;20.90;99.90
42031;DHT22;27709;52.036;5.906;2023-08-06T09:16:13;20.80;99.90
42031;DHT22;27709;52.036;5.906;2023-08-06T09:18:39;20.70;99.90
42031;DHT22;27709;52.036;5.906;2023-08-06T09:21:06;20.60;99.90
42031;DHT22;27709;52.036;5.906;2023-08-06T09:23:38;20.60;99.90
42031;DHT22;27709;52.036;5.906;2023-08-06T09:26:03;20.50;99.90
42031;DHT22;27709;52.036;5.906;2023-08-06T09:28:41;20.40;99.90
42031;DHT22;27709;52.036;5.906;2023-08-06T09:31:11;20.30;99.90
42031;DHT22;27709;52.036;5.906;2023-08-06T09:33:37;20.30;99.90
42031;DHT22;27709;52.036;5.906;2023-08-06T09:36:12;20.10;99.90
42031;DHT22;27709;52.036;5.906;2023-08-06T09:38:43;20.00;99.90
42031;DHT22;27709;52.036;5.906;2023-08-06T09:41:09;19.90;99.90
42031;DHT22;27709;52.036;5.906;2023-08-06T09:43:44;19.80;99.90
42031;DHT22;27709;52.036;5.906;2023-08-06T09:46:21;19.80;99.90
42031;DHT22;27709;52.036;5.906;2023-08-06T09:48:50;19.70;99.90
42031;DHT22;27709;52.036;5.906;2023-08-06T09:51:16;19.60;99.90
42031;DHT22;27709;52.036;5.906;2023-08-06T09:53:42;19.50;99.90
42031;DHT22;27709;52.036;5.906;2023-08-06T09:56:09;19.50;99.90
42031;DHT22;27709;52.036;5.906;2023-08-06T09:58:36;19.40;99.90
42031;DHT22;27709;52.036;5.906;2023-08-06T10:01:04;19.30;99.90
42031;DHT22;27709;52.036;5.906;2023-08-06T10:03:30;19.30;99.90
42031;DHT22;27709;52.036;5.906;2023-08-06T10:05:57;19.20;99.90
42031;DHT22;27709;52.036;5.906;2023-08-06T10:08:23;19.20;99.90
42031;DHT22;27709;52.036;5.906;2023-08-06T10:10:49;19.10;99.90
42031;DHT22;27709;52.036;5.906;2023-08-06T10:13:15;19.20;99.90
42031;DHT22;27709;52.036;5.906;2023-08-06T10:15:41;19.20;99.90
42031;DHT22;27709;52.036;5.906;2023-08-06T10:18:08;19.30;99.90
42031;DHT22;27709;52.036;5.906;2023-08-06T10:20:34;19.30;99.90
42031;DHT22;27709;52.036;5.906;2023-08-06T10:23:05;19.30;99.90
42031;DHT22;27709;52.036;5.906;2023-08-06T10:25:32;19.40;99.90
42031;DHT22;27709;52.036;5.906;2023-08-06T10:27:59;19.40;99.90
42031;DHT22;27709;52.036;5.906;2023-08-06T10:30:32;19.50;99.90
42031;DHT22;27709;52.036;5.906;2023-08-06T10:32:59;19.50;99.90
42031;DHT22;27709;52.036;5.906;2023-08-06T10:35:45;19.40;99.90
42031;DHT22;27709;52.036;5.906;2023-08-06T10:38:15;19.40;99.90
42031;DHT22;27709;52.036;5.906;2023-08-06T10:43:32;19.00;99.90
42031;DHT22;27709;52.036;5.906;2023-08-06T10:45:59;18.80;99.90
42031;DHT22;27709;52.036;5.906;2023-08-06T10:51:00;18.50;99.90
42031;DHT22;27709;52.036;5.906;2023-08-06T10:53:26;18.50;99.90
42031;DHT22;27709;52.036;5.906;2023-08-06T10:55:51;18.50;99.90
42031;DHT22;27709;52.036;5.906;2023-08-06T10:58:17;18.40;99.90
42031;DHT22;27709;52.036;5.906;2023-08-06T11:00:42;18.40;99.90
42031;DHT22;27709;52.036;5.906;2023-08-06T11:03:08;18.40;99.90
42031;DHT22;27709;52.036;5.906;2023-08-06T11:05:35;18.30;99.90
42031;DHT22;27709;52.036;5.906;2023-08-06T11:08:01;18.30;99.90
42031;DHT22;27709;52.036;5.906;2023-08-06T11:10:26;18.30;99.90
42031;DHT22;27709;52.036;5.906;2023-08-06T11:12:52;18.30;99.90
42031;DHT22;27709;52.036;5.906;2023-08-06T11:15:20;18.30;99.90
42031;DHT22;27709;52.036;5.906;2023-08-06T11:17:47;18.30;99.90
42031;DHT22;27709;52.036;5.906;2023-08-06T11:20:13;18.20;99.90
42031;DHT22;27709;52.036;5.906;2023-08-06T11:22:38;18.20;99.90
42031;DHT22;27709;52.036;5.906;2023-08-06T11:25:06;18.20;99.90
42031;DHT22;27709;52.036;5.906;2023-08-06T11:27:31;18.20;99.90
42031;DHT22;27709;52.036;5.906;2023-08-06T11:29:57;18.20;99.90
42031;DHT22;27709;52.036;5.906;2023-08-06T11:32:23;18.10;99.90
42031;DHT22;27709;52.036;5.906;2023-08-06T11:34:48;18.10;99.90
42031;DHT22;27709;52.036;5.906;2023-08-06T11:37:14;18.10;99.90
42031;DHT22;27709;52.036;5.906;2023-08-06T11:39:46;18.00;99.90
42031;DHT22;27709;52.036;5.906;2023-08-06T11:42:12;18.00;99.90
42031;DHT22;27709;52.036;5.906;2023-08-06T11:44:38;17.90;99.90
42031;DHT22;27709;52.036;5.906;2023-08-06T11:47:11;17.90;99.90
42031;DHT22;27709;52.036;5.906;2023-08-06T11:49:41;17.90;99.90
42031;DHT22;27709;52.036;5.906;2023-08-06T11:52:18;17.80;99.90
42031;DHT22;27709;52.036;5.906;2023-08-06T11:54:46;17.80;99.90
42031;DHT22;27709;52.036;5.906;2023-08-06T11:57:12;17.80;99.90
42031;DHT22;27709;52.036;5.906;2023-08-06T11:59:38;17.80;99.90
42031;DHT22;27709;52.036;5.906;2023-08-06T12:02:05;17.70;99.90
42031;DHT22;27709;52.036;5.906;2023-08-06T12:05:01;17.80;99.90
42031;DHT22;27709;52.036;5.906;2023-08-06T12:07:33;17.70;99.90
42031;DHT22;27709;52.036;5.906;2023-08-06T12:10:02;17.60;99.90
42031;DHT22;27709;52.036;5.906;2023-08-06T12:12:28;17.60;99.90
42031;DHT22;27709;52.036;5.906;2023-08-06T12:14:54;17.60;99.90
42031;DHT22;27709;52.036;5.906;2023-08-06T12:17:20;17.50;99.90
42031;DHT22;27709;52.036;5.906;2023-08-06T12:19:45;17.50;99.90
42031;DHT22;27709;52.036;5.906;2023-08-06T12:22:13;17.50;99.90
42031;DHT22;27709;52.036;5.906;2023-08-06T12:24:40;17.50;99.90
42031;DHT22;27709;52.036;5.906;2023-08-06T12:27:06;17.50;99.90
42031;DHT22;27709;52.036;5.906;2023-08-06T12:29:31;17.40;99.90
42031;DHT22;27709;52.036;5.906;2023-08-06T12:31:57;17.40;99.90
42031;DHT22;27709;52.036;5.906;2023-08-06T12:34:23;17.40;99.90
42031;DHT22;27709;52.036;5.906;2023-08-06T12:36:48;17.40;99.90
42031;DHT22;27709;52.036;5.906;2023-08-06T12:39:14;17.40;99.90
42031;DHT22;27709;52.036;5.906;2023-08-06T12:41:39;17.40;99.90
42031;DHT22;27709;52.036;5.906;2023-08-06T12:44:05;17.40;99.90
42031;DHT22;27709;52.036;5.906;2023-08-06T12:46:31;17.50;99.90
42031;DHT22;27709;52.036;5.906;2023-08-06T12:48:56;17.50;99.90
42031;DHT22;27709;52.036;5.906;2023-08-06T12:51:23;17.50;99.90
42031;DHT22;27709;52.036;5.906;2023-08-06T12:53:49;17.50;99.90
42031;DHT22;27709;52.036;5.906;2023-08-06T12:56:14;17.50;99.90
42031;DHT22;27709;52.036;5.906;2023-08-06T12:58:40;17.50;99.90
42031;DHT22;27709;52.036;5.906;2023-08-06T13:01:07;17.50;99.90
42031;DHT22;27709;52.036;5.906;2023-08-06T13:03:32;17.50;99.90
42031;DHT22;27709;52.036;5.906;2023-08-06T13:05:58;17.50;99.90
42031;DHT22;27709;52.036;5.906;2023-08-06T13:08:23;17.60;99.90
42031;DHT22;27709;52.036;5.906;2023-08-06T13:10:49;17.60;99.90
42031;DHT22;27709;52.036;5.906;2023-08-06T13:13:15;17.60;99.90
42031;DHT22;27709;52.036;5.906;2023-08-06T13:15:40;17.60;99.90
42031;DHT22;27709;52.036;5.906;2023-08-06T13:18:06;17.50;99.90
42031;DHT22;27709;52.036;5.906;2023-08-06T13:20:31;17.60;99.90
42031;DHT22;27709;52.036;5.906;2023-08-06T13:22:58;17.60;99.90
42031;DHT22;27709;52.036;5.906;2023-08-06T13:25:26;17.60;99.90
42031;DHT22;27709;52.036;5.906;2023-08-06T13:27:53;17.60;99.90
42031;DHT22;27709;52.036;5.906;2023-08-06T13:30:20;17.60;99.90
42031;DHT22;27709;52.036;5.906;2023-08-06T13:32:46;17.60;99.90
42031;DHT22;27709;52.036;5.906;2023-08-06T13:35:11;17.60;99.90
42031;DHT22;27709;52.036;5.906;2023-08-06T13:37:37;17.60;99.90
42031;DHT22;27709;52.036;5.906;2023-08-06T13:40:02;17.70;99.90
42031;DHT22;27709;52.036;5.906;2023-08-06T13:42:28;17.70;99.90
42031;DHT22;27709;52.036;5.906;2023-08-06T13:44:54;17.70;99.90
42031;DHT22;27709;52.036;5.906;2023-08-06T13:47:27;17.70;99.90
42031;DHT22;27709;52.036;5.906;2023-08-06T13:49:53;17.70;99.90
42031;DHT22;27709;52.036;5.906;2023-08-06T13:52:20;17.70;99.90
42031;DHT22;27709;52.036;5.906;2023-08-06T13:54:46;17.70;99.90
42031;DHT22;27709;52.036;5.906;2023-08-06T13:57:12;17.70;99.90
42031;DHT22;27709;52.036;5.906;2023-08-06T13:59:40;17.70;99.90
42031;DHT22;27709;52.036;5.906;2023-08-06T14:02:08;17.70;99.90
42031;DHT22;27709;52.036;5.906;2023-08-06T14:04:33;17.70;99.90
42031;DHT22;27709;52.036;5.906;2023-08-06T14:06:59;17.70;99.90
42031;DHT22;27709;52.036;5.906;2023-08-06T14:09:24;17.70;99.90
42031;DHT22;27709;52.036;5.906;2023-08-06T14:11:50;17.70;99.90
42031;DHT22;27709;52.036;5.906;2023-08-06T14:14:15;17.70;99.90
42031;DHT22;27709;52.036;5.906;2023-08-06T14:16:41;17.70;99.90
42031;DHT22;27709;52.036;5.906;2023-08-06T14:19:06;17.70;99.90
42031;DHT22;27709;52.036;5.906;2023-08-06T14:21:32;17.70;99.90
42031;DHT22;27709;52.036;5.906;2023-08-06T14:23:57;17.70;99.90
42031;DHT22;27709;52.036;5.906;2023-08-06T14:26:23;17.70;99.90
42031;DHT22;27709;52.036;5.906;2023-08-06T14:28:48;17.70;99.90
42031;DHT22;27709;52.036;5.906;2023-08-06T14:31:14;17.70;99.90
42031;DHT22;27709;52.036;5.906;2023-08-06T14:33:39;17.80;99.90
42031;DHT22;27709;52.036;5.906;2023-08-06T14:36:05;17.80;99.90
42031;DHT22;27709;52.036;5.906;2023-08-06T14:38:30;17.80;99.90
42031;DHT22;27709;52.036;5.906;2023-08-06T14:40:56;17.90;99.90
42031;DHT22;27709;52.036;5.906;2023-08-06T14:43:22;18.00;99.90
42031;DHT22;27709;52.036;5.906;2023-08-06T14:45:47;18.10;99.90
42031;DHT22;27709;52.036;5.906;2023-08-06T14:48:13;18.10;99.90
42031;DHT22;27709;52.036;5.906;2023-08-06T14:50:38;18.20;99.90
42031;DHT22;27709;52.036;5.906;2023-08-06T14:53:05;18.30;99.90
42031;DHT22;27709;52.036;5.906;2023-08-06T14:55:31;18.30;99.90
42031;DHT22;27709;52.036;5.906;2023-08-06T14:58:00;18.30;99.90
42031;DHT22;27709;52.036;5.906;2023-08-06T15:00:25;18.40;99.90
42031;DHT22;27709;52.036;5.906;2023-08-06T15:02:51;18.40;99.90
42031;DHT22;27709;52.036;5.906;2023-08-06T15:05:17;18.40;99.90
42031;DHT22;27709;52.036;5.906;2023-08-06T15:07:42;18.50;99.90
42031;DHT22;27709;52.036;5.906;2023-08-06T15:10:08;18.50;99.90
42031;DHT22;27709;52.036;5.906;2023-08-06T15:12:33;18.50;99.90
42031;DHT22;27709;52.036;5.906;2023-08-06T15:14:59;18.50;99.90
42031;DHT22;27709;52.036;5.906;2023-08-06T15:17:26;18.60;99.90
42031;DHT22;27709;52.036;5.906;2023-08-06T15:19:52;18.60;99.90
42031;DHT22;27709;52.036;5.906;2023-08-06T15:22:18;18.70;99.90
42031;DHT22;27709;52.036;5.906;2023-08-06T15:24:44;18.70;99.90
42031;DHT22;27709;52.036;5.906;2023-08-06T15:27:11;18.70;99.90
42031;DHT22;27709;52.036;5.906;2023-08-06T15:29:37;18.70;99.90
42031;DHT22;27709;52.036;5.906;2023-08-06T15:32:03;18.80;99.90
42031;DHT22;27709;52.036;5.906;2023-08-06T15:34:28;18.80;99.90
42031;DHT22;27709;52.036;5.906;2023-08-06T15:36:54;18.80;99.90